createdAt,value
2022-10-06T00:01:59.554Z,99822.22
2022-10-06T00:04:28.824Z,99827.38
2022-10-06T00:09:37.404Z,99797.31
2022-10-06T00:12:07.177Z,99823.94
2022-10-06T00:14:36.396Z,99821.34
2022-10-06T00:17:13.290Z,99822.22
2022-10-06T00:19:42.354Z,99820.50
2022-10-06T00:22:11.406Z,99826.53
2022-10-06T00:24:45.670Z,99823.09
2022-10-06T00:27:15.232Z,99833.38
2022-10-06T00:29:44.613Z,99830.81
2022-10-06T00:32:15.745Z,99827.38
2022-10-06T00:34:45.041Z,99823.06
2022-10-06T00:37:14.290Z,99828.25
2022-10-06T00:39:43.655Z,99837.66
2022-10-06T00:42:24.032Z,99829.94
2022-10-06T00:45:03.091Z,99838.56
2022-10-06T00:47:36.238Z,99829.09
2022-10-06T00:50:06.499Z,99829.94
2022-10-06T00:52:35.717Z,99829.13
2022-10-06T00:55:08.877Z,99828.22
2022-10-06T00:57:39.339Z,99835.09
2022-10-06T01:00:14.753Z,99820.50
2022-10-06T01:02:50.564Z,99826.50
2022-10-06T01:05:29.566Z,99834.25
2022-10-06T01:08:03.942Z,99841.09
2022-10-06T01:10:32.994Z,99833.38
2022-10-06T01:13:10.071Z,99842.84
2022-10-06T01:15:44.320Z,99833.38
2022-10-06T01:18:18.251Z,99841.09
2022-10-06T01:20:59.569Z,99833.41
2022-10-06T01:23:33.557Z,99837.66
2022-10-06T01:26:06.845Z,99830.81
2022-10-06T01:28:36.579Z,99836.81
2022-10-06T01:31:09.947Z,99829.97
2022-10-06T01:33:39.546Z,99836.81
2022-10-06T01:36:09.379Z,99831.66
2022-10-06T01:38:40.397Z,99834.25
2022-10-06T01:41:09.748Z,99829.09
2022-10-06T01:43:38.827Z,99834.22
2022-10-06T01:46:08.819Z,99841.09
2022-10-06T01:48:38.485Z,99836.84
2022-10-06T01:51:15.642Z,99838.53
2022-10-06T01:53:46.776Z,99839.38
2022-10-06T01:56:15.950Z,99830.78
2022-10-06T01:58:45.560Z,99845.38
2022-10-06T02:01:15.040Z,99839.38
2022-10-06T02:03:44.262Z,99844.50
2022-10-06T02:06:13.694Z,99845.38
2022-10-06T02:08:47.143Z,99842.81
2022-10-06T02:11:16.807Z,99840.22
2022-10-06T02:13:49.046Z,99839.38
2022-10-06T02:16:18.397Z,99835.06
2022-10-06T02:18:47.755Z,99841.94
2022-10-06T02:21:19.105Z,99837.66
2022-10-06T02:23:50.367Z,99835.06
2022-10-06T02:26:20.036Z,99842.81
2022-10-06T02:28:51.491Z,99842.81
2022-10-06T02:31:25.256Z,99836.78
2022-10-06T02:33:54.528Z,99845.38
2022-10-06T02:36:24.812Z,99842.81
2022-10-06T02:39:02.497Z,99841.94
2022-10-06T02:41:37.469Z,99850.53
2022-10-06T02:44:11.727Z,99848.81
2022-10-06T02:46:44.330Z,99847.09
2022-10-06T02:49:13.742Z,99850.50
2022-10-06T02:51:49.094Z,99856.53
2022-10-06T02:54:26.390Z,99857.38
2022-10-06T02:56:55.575Z,99856.53
2022-10-06T02:59:24.635Z,99858.22
2022-10-06T03:02:04.717Z,99856.50
2022-10-06T03:04:33.909Z,99860.78
2022-10-06T03:07:04.188Z,99856.53
2022-10-06T03:09:44.816Z,99861.66
2022-10-06T03:12:16.494Z,99856.53
2022-10-06T03:14:47.138Z,99861.69
2022-10-06T03:17:16.306Z,99862.56
2022-10-06T03:19:51.448Z,99860.84
2022-10-06T03:22:21.455Z,99866.84
2022-10-06T03:25:03.587Z,99859.09
2022-10-06T03:27:32.900Z,99860.81
2022-10-06T03:30:06.158Z,99862.56
2022-10-06T03:32:37.759Z,99859.91
2022-10-06T03:35:07.848Z,99865.09
2022-10-06T03:37:37.179Z,99868.53
2022-10-06T03:40:15.013Z,99859.94
2022-10-06T03:42:44.550Z,99865.09
2022-10-06T03:45:14.042Z,99853.91
2022-10-06T03:47:43.457Z,99858.19
2022-10-06T03:50:12.875Z,99855.63
2022-10-06T03:52:42.091Z,99849.63
2022-10-06T03:55:22.650Z,99832.44
2022-10-06T03:57:57.082Z,99865.06
2022-10-06T04:00:26.176Z,99859.03
2022-10-06T04:02:55.278Z,99861.63
2022-10-06T04:05:34.984Z,99869.38
2022-10-06T04:08:04.212Z,99874.53
2022-10-06T04:10:35.265Z,99874.56
2022-10-06T04:13:07.284Z,99867.66
2022-10-06T04:15:36.217Z,99877.97
2022-10-06T04:18:06.171Z,99878.81
2022-10-06T04:20:35.845Z,99876.22
2022-10-06T04:23:05.571Z,99870.22
2022-10-06T04:25:36.924Z,99874.50
2022-10-06T04:28:06.196Z,99870.19
2022-10-06T04:30:35.564Z,99879.66
2022-10-06T04:33:04.737Z,99878.78
2022-10-06T04:35:33.819Z,99878.78
2022-10-06T04:38:04.236Z,99889.06
2022-10-06T04:40:33.868Z,99886.53
2022-10-06T04:43:05.323Z,99884.75
2022-10-06T04:45:35.284Z,99886.47
2022-10-06T04:48:04.585Z,99886.47
2022-10-06T04:50:33.824Z,99895.03
2022-10-06T04:53:08.821Z,99873.50
2022-10-06T04:55:38.105Z,99890.69
2022-10-06T04:58:14.577Z,99888.94
2022-10-06T05:00:44.497Z,99889.78
2022-10-06T05:03:14.088Z,99893.25
2022-10-06T05:05:43.487Z,99899.25
2022-10-06T05:08:12.678Z,99900.97
2022-10-06T05:10:41.943Z,99898.34
2022-10-06T05:13:15.188Z,99894.91
2022-10-06T05:15:44.371Z,99896.59
2022-10-06T05:18:18.872Z,99900.03
2022-10-06T05:20:57.448Z,99897.41
2022-10-06T05:23:27.967Z,99891.38
2022-10-06T05:26:07.796Z,99892.19
2022-10-06T05:28:43.976Z,99889.53
2022-10-06T05:31:17.787Z,99893.78
2022-10-06T05:33:47.605Z,99892.75
2022-10-06T05:36:24.542Z,99890.00
2022-10-06T05:38:55.782Z,99891.63
2022-10-06T05:41:28.312Z,99892.50
2022-10-06T05:44:05.999Z,99894.25
2022-10-06T05:46:47.023Z,99891.69
2022-10-06T05:49:16.369Z,99900.34
2022-10-06T05:51:57.352Z,99895.16
2022-10-06T05:54:33.237Z,99892.59
2022-10-06T05:57:02.736Z,99894.25
2022-10-06T05:59:36.744Z,99903.63
2022-10-06T06:02:11.665Z,99892.31
2022-10-06T06:04:44.228Z,99893.09
2022-10-06T06:07:25.199Z,99894.69
2022-10-06T06:09:54.610Z,99891.31
2022-10-06T06:12:23.664Z,99899.16
2022-10-06T06:15:25.872Z,99900.06
2022-10-06T06:18:01.173Z,99894.91
2022-10-06T06:23:10.856Z,99909.66
2022-10-06T06:25:40.043Z,99908.03
2022-10-06T06:28:14.418Z,99904.56
2022-10-06T06:30:45.583Z,99889.06
2022-10-06T06:33:14.919Z,99900.97
2022-10-06T06:35:44.183Z,99900.09
2022-10-06T06:38:13.458Z,99901.78
2022-10-06T06:40:42.625Z,99901.63
2022-10-06T06:43:19.191Z,99908.63
2022-10-06T06:46:23.733Z,99914.72
2022-10-06T06:49:03.817Z,99916.50
2022-10-06T06:51:36.456Z,99904.28
2022-10-06T06:56:54.816Z,99907.53
2022-10-06T06:59:32.582Z,99910.94
2022-10-06T07:02:09.374Z,99906.56
2022-10-06T07:04:41.343Z,99909.03
2022-10-06T07:07:13.321Z,99902.06
2022-10-06T07:09:43.827Z,99902.09
2022-10-06T07:12:15.188Z,99899.41
2022-10-06T07:15:10.789Z,99899.06
2022-10-06T07:18:16.460Z,99890.09
2022-10-06T07:20:58.640Z,99881.41
2022-10-06T07:23:46.275Z,99890.84
2022-10-06T07:26:19.858Z,99886.63
2022-10-06T07:28:49.643Z,99896.00
2022-10-06T07:31:20.604Z,99891.41
2022-10-06T07:33:53.117Z,99874.84
2022-10-06T07:36:23.028Z,99888.84
2022-10-06T07:38:57.364Z,99885.50
2022-10-06T07:41:26.638Z,99893.31
2022-10-06T07:43:59.395Z,99894.94
2022-10-06T07:46:32.886Z,99893.78
2022-10-06T07:49:19.016Z,99888.38
2022-10-06T07:51:49.743Z,99897.94
2022-10-06T07:57:15.915Z,99883.63
2022-10-06T08:00:00.557Z,99886.88
2022-10-06T08:02:41.726Z,99883.25
2022-10-06T08:05:13.497Z,99879.94
2022-10-06T08:07:42.810Z,99882.00
2022-10-06T08:10:12.710Z,99857.31
2022-10-06T08:12:41.970Z,99873.56
2022-10-06T08:15:13.276Z,99878.59
2022-10-06T08:17:42.877Z,99873.31
2022-10-06T08:20:16.660Z,99881.78
2022-10-06T08:22:45.762Z,99873.63
2022-10-06T08:25:15.302Z,99862.16
2022-10-06T08:27:53.433Z,99860.03
2022-10-06T08:30:26.746Z,99871.56
2022-10-06T08:32:58.136Z,99862.66
2022-10-06T08:35:30.221Z,99862.56
2022-10-06T08:38:04.403Z,99862.13
2022-10-06T08:40:34.830Z,99852.22
2022-10-06T08:43:17.998Z,99874.78
2022-10-06T08:45:49.936Z,99878.19
2022-10-06T08:48:29.785Z,99875.09
2022-10-06T08:51:18.295Z,99884.78
2022-10-06T08:53:59.036Z,99879.69
2022-10-06T08:56:33.426Z,99871.72
2022-10-06T08:59:05.378Z,99880.97
2022-10-06T09:01:43.032Z,99887.88
2022-10-06T09:04:19.114Z,99871.69
2022-10-06T09:06:59.915Z,99871.81
2022-10-06T09:09:54.338Z,99881.25
2022-10-06T09:12:37.971Z,99885.81
2022-10-06T09:15:25.366Z,99882.59
2022-10-06T09:18:01.521Z,99893.25
2022-10-06T09:20:39.790Z,99884.13
2022-10-06T09:23:17.351Z,99874.81
2022-10-06T09:25:47.098Z,99892.06
2022-10-06T09:28:18.408Z,99894.06
2022-10-06T09:30:50.111Z,99890.97
2022-10-06T09:33:40.435Z,99888.50
2022-10-06T09:38:57.203Z,99889.28
2022-10-06T09:41:36.195Z,99895.38
2022-10-06T09:44:08.881Z,99884.97
2022-10-06T09:46:43.690Z,99885.63
2022-10-06T09:49:20.804Z,99888.28
2022-10-06T09:52:10.499Z,99889.06
2022-10-06T09:54:43.005Z,99891.47
2022-10-06T09:57:18.146Z,99885.25
2022-10-06T09:59:48.810Z,99892.16
2022-10-06T10:02:29.009Z,99874.13
2022-10-06T10:04:59.231Z,99890.41
2022-10-06T10:07:30.825Z,99897.28
2022-10-06T10:10:25.973Z,99894.75
2022-10-06T10:12:56.748Z,99889.69
2022-10-06T10:15:28.985Z,99883.66
2022-10-06T10:17:59.912Z,99875.75
2022-10-06T10:20:38.960Z,99876.31
2022-10-06T10:26:19.257Z,99869.75
2022-10-06T10:29:15.227Z,99872.78
2022-10-06T10:31:52.277Z,99868.06
2022-10-06T10:34:52.775Z,99864.75
2022-10-06T10:37:29.921Z,99863.06
2022-10-06T10:40:03.976Z,99862.47
2022-10-06T10:42:40.556Z,99860.78
2022-10-06T10:45:24.193Z,99861.75
2022-10-06T10:47:53.363Z,99860.97
2022-10-06T10:50:32.538Z,99859.78
2022-10-06T10:53:15.249Z,99863.38
2022-10-06T10:55:48.726Z,99863.09
2022-10-06T10:58:25.569Z,99846.63
2022-10-06T11:01:12.289Z,99831.22
2022-10-06T11:03:56.195Z,99856.91
2022-10-06T11:06:51.240Z,99858.63
2022-10-06T11:09:24.798Z,99846.72
2022-10-06T11:12:18.504Z,99858.06
2022-10-06T11:14:59.007Z,99857.47
2022-10-06T11:17:43.847Z,99845.53
2022-10-06T11:20:38.973Z,99835.06
2022-10-06T11:23:43.396Z,99855.84
2022-10-06T11:26:24.606Z,99861.81
2022-10-06T11:29:02.835Z,99858.22
2022-10-06T11:31:40.193Z,99864.47
2022-10-06T11:34:14.760Z,99870.94
2022-10-06T11:36:57.710Z,99871.44
2022-10-06T11:39:34.699Z,99863.88
2022-10-06T11:42:15.329Z,99865.66
2022-10-06T11:45:02.950Z,99864.72
2022-10-06T11:47:46.805Z,99863.03
2022-10-06T11:50:35.427Z,99857.03
2022-10-06T11:53:28.112Z,99866.66
2022-10-06T11:56:28.442Z,99860.00
2022-10-06T11:59:16.593Z,99849.97
2022-10-06T12:01:55.951Z,99862.16
2022-10-06T12:04:28.345Z,99863.03
2022-10-06T12:07:07.269Z,99859.34
2022-10-06T12:09:52.954Z,99865.97
2022-10-06T12:13:06.333Z,99857.81
2022-10-06T12:18:50.177Z,99849.09
2022-10-06T12:21:46.326Z,99861.03
2022-10-06T12:24:43.021Z,99853.34
2022-10-06T12:27:25.767Z,99849.66
2022-10-06T12:30:04.015Z,99852.97
2022-10-06T12:32:45.961Z,99857.53
2022-10-06T12:35:25.838Z,99859.28
2022-10-06T12:38:00.018Z,99853.19
2022-10-06T12:40:57.458Z,99856.41
2022-10-06T12:44:00.280Z,99843.19
2022-10-06T12:46:39.348Z,99835.56
2022-10-06T12:56:33.896Z,99828.94
2022-10-06T12:59:24.982Z,99829.19
2022-10-06T13:01:58.013Z,99774.66
2022-10-06T13:04:40.404Z,99827.28
2022-10-06T13:07:19.554Z,99716.06
2022-10-06T13:09:51.323Z,99813.69
2022-10-06T13:12:31.229Z,99858.06
2022-10-06T13:15:21.866Z,99779.44
2022-10-06T13:18:05.774Z,99814.91
2022-10-06T13:20:42.547Z,99858.31
2022-10-06T13:26:08.129Z,99673.31
2022-10-06T13:28:51.237Z,99686.72
2022-10-06T13:31:24.356Z,99812.16
2022-10-06T13:33:57.291Z,99786.56
2022-10-06T13:36:30.676Z,99685.38
2022-10-06T13:39:00.337Z,99776.84
2022-10-06T13:41:33.060Z,99704.53
2022-10-06T13:44:20.733Z,99664.03
2022-10-06T13:46:55.567Z,99697.94
2022-10-06T13:49:35.120Z,99712.59
2022-10-06T13:52:11.451Z,99742.25
2022-10-06T13:54:48.435Z,99736.38
2022-10-06T13:57:36.688Z,99769.09
2022-10-06T14:00:24.247Z,99748.31
2022-10-06T14:02:56.835Z,99789.44
2022-10-06T14:05:36.200Z,99754.91
2022-10-06T14:08:19.798Z,99805.88
2022-10-06T14:10:58.345Z,99844.75
2022-10-06T14:13:30.757Z,99844.75
2022-10-06T14:16:03.996Z,99824.13
2022-10-06T14:18:39.462Z,99850.97
2022-10-06T14:21:20.625Z,99843.19
2022-10-06T14:23:52.414Z,99844.91
2022-10-06T14:26:21.901Z,99843.84
2022-10-06T14:28:53.553Z,99842.34
2022-10-06T14:31:32.933Z,99851.94
2022-10-06T14:34:02.954Z,99851.09
2022-10-06T14:36:34.641Z,99825.38
2022-10-06T14:39:13.394Z,99839.00
2022-10-06T14:44:17.666Z,99846.88
2022-10-06T14:46:50.328Z,99844.25
2022-10-06T14:51:59.646Z,99851.97
2022-10-06T14:54:29.248Z,99853.72
2022-10-06T14:56:58.451Z,99845.13
2022-10-06T15:02:11.541Z,99862.38
2022-10-06T15:04:40.660Z,99859.78
2022-10-06T15:10:03.193Z,99874.41
2022-10-06T15:12:37.407Z,99858.84
2022-10-06T15:15:12.425Z,99862.41
2022-10-06T15:17:43.792Z,99860.63
2022-10-06T15:20:13.976Z,99852.88
2022-10-06T15:22:43.318Z,99852.03
2022-10-06T15:25:33.925Z,99814.44
2022-10-06T15:28:18.645Z,99852.94
2022-10-06T15:30:56.539Z,99846.03
2022-10-06T15:33:31.654Z,99844.31
2022-10-06T15:36:17.805Z,99848.53
2022-10-06T15:41:27.233Z,99839.09
2022-10-06T15:43:56.947Z,99849.47
2022-10-06T15:46:34.755Z,99841.69
2022-10-06T15:49:07.256Z,99848.59
2022-10-06T15:51:46.890Z,99841.75
2022-10-06T15:54:18.920Z,99844.34
2022-10-06T15:56:48.913Z,99841.72
2022-10-06T15:59:20.919Z,99829.75
2022-10-06T16:01:57.298Z,99840.84
2022-10-06T16:04:35.161Z,99841.84
2022-10-06T16:07:10.264Z,99843.53
2022-10-06T16:09:43.407Z,99831.44
2022-10-06T16:12:15.923Z,99834.00
2022-10-06T16:14:50.825Z,99828.78
2022-10-06T16:17:25.423Z,99833.09
2022-10-06T16:19:56.565Z,99840.88
2022-10-06T16:22:25.933Z,99831.38
2022-10-06T16:24:55.015Z,99836.59
2022-10-06T16:27:24.271Z,99828.84
2022-10-06T16:29:53.524Z,99827.19
2022-10-06T16:32:22.815Z,99824.56
2022-10-06T16:34:59.109Z,99826.25
2022-10-06T16:37:28.404Z,99828.81
2022-10-06T16:39:57.501Z,99827.97
2022-10-06T16:42:44.827Z,99835.69
2022-10-06T16:45:14.683Z,99821.88
2022-10-06T16:47:43.755Z,99817.59
2022-10-06T16:50:15.582Z,99813.34
2022-10-06T16:52:44.304Z,99820.84
2022-10-06T16:55:13.434Z,99822.69
2022-10-06T16:57:47.655Z,99818.53
2022-10-06T17:00:17.167Z,99821.03
2022-10-06T17:02:46.280Z,99826.22
2022-10-06T17:05:17.457Z,99823.63
2022-10-06T17:07:46.622Z,99814.13
2022-10-06T17:10:21.459Z,99818.41
2022-10-06T17:12:51.202Z,99828.00
2022-10-06T17:15:20.447Z,99821.97
2022-10-06T17:17:49.644Z,99820.28
2022-10-06T17:20:25.832Z,99823.69
2022-10-06T17:22:55.165Z,99826.31
2022-10-06T17:25:24.155Z,99817.66
2022-10-06T17:27:53.546Z,99814.25
2022-10-06T17:30:22.960Z,99819.38
2022-10-06T17:32:54.684Z,99812.50
2022-10-06T17:35:25.858Z,99808.19
2022-10-06T17:37:56.176Z,99799.56
2022-10-06T17:40:25.607Z,99796.16
2022-10-06T17:42:55.547Z,99791.81
2022-10-06T17:45:25.347Z,99798.69
2022-10-06T17:48:05.962Z,99785.69
2022-10-06T17:50:37.218Z,99805.59
2022-10-06T17:53:12.491Z,99785.75
2022-10-06T17:55:48.940Z,99778.91
2022-10-06T17:58:18.893Z,99778.91
2022-10-06T18:00:48.066Z,99770.25
2022-10-06T18:03:26.936Z,99775.41
2022-10-06T18:06:00.182Z,99780.59
2022-10-06T18:08:30.989Z,99772.88
2022-10-06T18:11:13.175Z,99770.25
2022-10-06T18:13:42.673Z,99763.38
2022-10-06T18:16:22.939Z,99754.69
2022-10-06T18:18:54.525Z,99750.41
2022-10-06T18:21:27.845Z,99744.31
2022-10-06T18:23:57.608Z,99743.44
2022-10-06T18:26:26.712Z,99740.03
2022-10-06T18:28:55.862Z,99749.47
2022-10-06T18:31:25.332Z,99744.25
2022-10-06T18:36:46.691Z,99739.91
2022-10-06T18:39:16.102Z,99718.34
2022-10-06T18:41:45.879Z,99717.66
2022-10-06T18:44:40.671Z,99728.13
2022-10-06T18:47:27.732Z,99736.72
2022-10-06T18:50:02.915Z,99729.94
2022-10-06T18:52:34.842Z,99731.72
2022-10-06T18:55:08.995Z,99725.81
2022-10-06T18:57:48.534Z,99731.19
2022-10-06T19:00:20.956Z,99731.38
2022-10-06T19:02:51.724Z,99710.13
2022-10-06T19:05:20.898Z,99733.34
2022-10-06T19:07:55.718Z,99705.00
2022-10-06T19:10:25.285Z,99729.75
2022-10-06T19:12:54.522Z,99724.53
2022-10-06T19:15:23.602Z,99729.63
2022-10-06T19:17:57.735Z,99735.56
2022-10-06T19:20:27.029Z,99732.06
2022-10-06T19:22:58.143Z,99713.13
2022-10-06T19:25:30.156Z,99724.19
2022-10-06T19:27:59.470Z,99710.31
2022-10-06T19:30:28.915Z,99717.31
2022-10-06T19:32:58.479Z,99713.91
2022-10-06T19:35:27.769Z,99714.81
2022-10-06T19:37:58.910Z,99724.34
2022-10-06T19:43:00.565Z,99707.88
2022-10-06T19:45:29.848Z,99709.69
2022-10-06T19:47:59.816Z,99709.44
2022-10-06T19:50:29.838Z,99721.59
2022-10-06T19:53:01.069Z,99711.09
2022-10-06T19:55:30.947Z,99720.56
2022-10-06T19:58:00.175Z,99715.38
2022-10-06T20:00:30.145Z,99717.22
2022-10-06T20:03:00.627Z,99718.94
2022-10-06T20:08:21.911Z,99720.69
2022-10-06T20:10:51.007Z,99706.91
2022-10-06T20:13:20.123Z,99705.16
2022-10-06T20:15:49.325Z,99709.50
2022-10-06T20:18:18.508Z,99699.09
2022-10-06T20:21:03.240Z,99712.81
2022-10-06T20:23:34.527Z,99729.25
2022-10-06T20:26:20.716Z,99711.91
2022-10-06T20:28:50.710Z,99708.53
2022-10-06T20:31:29.050Z,99717.06
2022-10-06T20:34:00.117Z,99698.88
2022-10-06T20:36:36.695Z,99702.28
2022-10-06T20:39:21.861Z,99706.78
2022-10-06T20:41:51.602Z,99712.78
2022-10-06T20:44:21.702Z,99714.50
2022-10-06T20:46:56.313Z,99711.00
2022-10-06T20:49:25.618Z,99715.31
2022-10-06T20:51:54.737Z,99723.94
2022-10-06T20:54:34.273Z,99710.03
2022-10-06T20:57:09.036Z,99714.25
2022-10-06T20:59:43.637Z,99703.94
2022-10-06T21:02:12.934Z,99700.63
2022-10-06T21:04:43.127Z,99721.25
2022-10-06T21:07:12.414Z,99696.31
2022-10-06T21:09:48.650Z,99706.59
2022-10-06T21:12:25.520Z,99713.47
2022-10-06T21:14:56.437Z,99697.00
2022-10-06T21:17:25.483Z,99702.28
2022-10-06T21:22:32.032Z,99697.91
2022-10-06T21:25:03.118Z,99706.56
2022-10-06T21:27:32.360Z,99708.22
2022-10-06T21:30:13.158Z,99702.19
2022-10-06T21:32:42.556Z,99694.38
2022-10-06T21:35:12.098Z,99703.88
2022-10-06T21:37:42.500Z,99706.47
2022-10-06T21:42:49.542Z,99708.16
2022-10-06T21:45:21.020Z,99706.34
2022-10-06T21:47:58.490Z,99701.97
2022-10-06T21:50:27.479Z,99699.44
2022-10-06T21:52:56.556Z,99703.72
2022-10-06T21:55:32.844Z,99708.13
2022-10-06T21:58:07.395Z,99715.06
2022-10-06T22:00:41.661Z,99700.47
2022-10-06T22:03:11.084Z,99707.53
2022-10-06T22:05:40.111Z,99704.91
2022-10-06T22:08:09.277Z,99704.16
2022-10-06T22:10:40.329Z,99709.38
2022-10-06T22:13:09.420Z,99709.44
2022-10-06T22:15:38.703Z,99724.97
2022-10-06T22:18:07.795Z,99723.25
2022-10-06T22:20:36.868Z,99697.66
2022-10-06T22:23:05.991Z,99719.81
2022-10-06T22:25:35.071Z,99727.59
2022-10-06T22:28:06.238Z,99731.88
2022-10-06T22:30:35.358Z,99726.66
2022-10-06T22:33:04.467Z,99730.97
2022-10-06T22:35:38.694Z,99739.63
2022-10-06T22:38:08.015Z,99738.78
2022-10-06T22:40:36.993Z,99737.00
2022-10-06T22:43:13.314Z,99745.59
2022-10-06T22:45:42.529Z,99746.41
2022-10-06T22:48:11.579Z,99746.38
2022-10-06T22:50:45.696Z,99751.50
2022-10-06T22:53:16.439Z,99747.19
2022-10-06T22:55:46.006Z,99754.91
2022-10-06T22:58:22.054Z,99755.78
2022-10-06T23:00:51.574Z,99748.81
2022-10-06T23:03:21.194Z,99730.66
2022-10-06T23:05:58.050Z,99711.59
2022-10-06T23:08:34.867Z,99739.28
2022-10-06T23:11:08.847Z,99736.63
2022-10-06T23:13:40.608Z,99740.06
2022-10-06T23:16:17.519Z,99744.34
2022-10-06T23:18:52.817Z,99742.56
2022-10-06T23:21:24.217Z,99746.06
2022-10-06T23:23:56.194Z,99734.09
2022-10-06T23:26:35.734Z,99749.50
2022-10-06T23:29:11.796Z,99739.03
2022-10-06T23:31:40.943Z,99735.59
2022-10-06T23:34:10.153Z,99746.78
2022-10-06T23:36:39.401Z,99751.06
2022-10-06T23:39:08.899Z,99741.53
2022-10-06T23:41:38.166Z,99752.78
2022-10-06T23:44:15.323Z,99743.41
2022-10-06T23:46:44.838Z,99751.91
2022-10-06T23:49:14.214Z,99767.50
2022-10-06T23:51:48.384Z,99760.50
2022-10-06T23:54:17.499Z,99734.53
2022-10-06T23:59:30.826Z,99753.53
